createdAt,value
2022-08-17T00:01:03.199Z,7336.58838
2022-08-17T00:16:06.697Z,6831.98096
2022-08-17T00:31:08.898Z,3721.63159
2022-08-17T00:46:11.096Z,7018.96143
2022-08-17T01:01:21.294Z,3161.88867
2022-08-17T01:16:24.176Z,2069.97046
2022-08-17T01:31:26.401Z,958.87451
2022-08-17T01:46:28.574Z,719.15588
2022-08-17T02:01:30.837Z,582.5163
2022-08-17T02:16:36.624Z,385.94699
2022-08-17T02:31:39.781Z,286.46378
2022-08-17T02:46:41.970Z,170.20023
2022-08-17T03:01:44.270Z,65.92262
2022-08-17T03:16:46.713Z,14.38312
2022-08-17T03:31:49.775Z,1.19859
2022-08-17T03:46:52.116Z,0
2022-08-17T04:01:54.473Z,0
2022-08-17T04:16:56.727Z,0
2022-08-17T04:31:58.969Z,0
2022-08-17T04:47:01.168Z,0
2022-08-17T05:02:03.511Z,0
2022-08-17T05:17:07.336Z,0
2022-08-17T05:32:38.288Z,0
2022-08-17T05:47:43.884Z,0
2022-08-17T06:02:47.979Z,0
2022-08-17T06:17:50.456Z,0
2022-08-17T06:32:52.897Z,0
2022-08-17T06:47:55.154Z,0
2022-08-17T07:02:57.557Z,0
2022-08-17T07:18:00.121Z,0
2022-08-17T07:33:02.635Z,0
2022-08-17T07:48:04.853Z,0
2022-08-17T08:03:07.497Z,0
2022-08-17T08:18:09.865Z,0
2022-08-17T08:33:12.151Z,0
2022-08-17T08:48:23.111Z,0
2022-08-17T09:04:10.935Z,0
2022-08-17T09:19:22.269Z,0
2022-08-17T09:34:28.158Z,0
2022-08-17T09:49:34.430Z,0
2022-08-17T10:04:36.655Z,0
2022-08-17T10:19:39.990Z,0
2022-08-17T10:34:46.664Z,0
2022-08-17T10:49:48.873Z,0
2022-08-17T11:04:51.073Z,0
2022-08-17T11:19:53.285Z,0
2022-08-17T11:34:55.466Z,0
2022-08-17T11:49:57.702Z,0
2022-08-17T12:04:59.960Z,0
2022-08-17T12:20:03.035Z,2.39719
2022-08-17T12:35:06.887Z,19.17749
2022-08-17T12:50:29.824Z,76.70996
2022-08-17T13:05:32.479Z,182.18616
2022-08-17T13:20:34.712Z,309.23703
2022-08-17T13:35:39.947Z,456.664
2022-08-17T13:50:42.793Z,1072.74084
2022-08-17T14:05:44.971Z,5761.63721
2022-08-17T14:20:47.202Z,3902.61938
2022-08-17T14:35:49.416Z,4778.79102
2022-08-17T14:50:51.656Z,2319.27783
2022-08-17T15:05:53.869Z,2171.85083
2022-08-17T15:20:56.109Z,2358.8313
2022-08-17T15:35:58.332Z,3155.89575
2022-08-17T15:51:00.648Z,2929.36157
2022-08-17T16:06:02.900Z,3688.07104
2022-08-17T16:21:05.285Z,3800.73877
2022-08-17T16:36:07.502Z,3608.96387
2022-08-17T16:51:09.710Z,3763.58252
2022-08-17T17:06:12.087Z,3740.80908
2022-08-17T17:21:14.334Z,3457.94116
2022-08-17T17:36:16.589Z,3421.9834
2022-08-17T17:52:05.247Z,3285.34375
2022-08-17T18:07:13.635Z,3540.64404
2022-08-17T18:22:15.870Z,3529.85669
2022-08-17T18:37:19.512Z,3442.35962
2022-08-17T18:52:21.790Z,3508.28223
2022-08-17T19:07:24.048Z,3465.13281
2022-08-17T19:22:28.774Z,3513.07642
2022-08-17T19:37:31.392Z,3769.57544
2022-08-17T19:52:33.625Z,3762.38379
2022-08-17T20:07:35.888Z,3644.92163
2022-08-17T20:22:50.398Z,3484.3103
2022-08-17T20:37:54.756Z,3559.82153
2022-08-17T20:52:56.952Z,3623.34717
2022-08-17T21:07:59.420Z,3555.02734
2022-08-17T21:23:01.724Z,3489.10474
2022-08-17T21:38:03.966Z,3297.32983
2022-08-17T21:53:06.367Z,3721.63159
2022-08-17T22:08:08.570Z,4199.87061
2022-08-17T22:23:19.110Z,4953.78564
2022-08-17T22:38:21.311Z,5525.51416
2022-08-17T22:53:23.570Z,5780.81494
2022-08-17T23:08:25.847Z,6076.86719
2022-08-17T23:23:28.053Z,6604.24805
2022-08-17T23:38:30.297Z,7131.62939
2022-08-17T23:53:32.637Z,7293.43945
